Time;durP1;ratioP1;P1;durP2;ratioP2;P2;SDS_P1;SDS_P2;PMS_P1;PMS_P2;Temp;Humidity;BMP_temperature;BMP_pressure;BME280_temperature;BME280_humidity;BME280_pressure;Samples;Min_cycle;Max_cycle;Signal;HPM_P1;HPM_P2
2022/11/29 05:44:37;;;;;;;58.05;27.88;;;4.30;99.90;;;;;;7617379;19;20382;-72
2022/11/29 05:47:16;;;;;;;57.50;30.77;;;4.30;99.90;;;;;;7631750;19;20018;-72
2022/11/29 05:50:13;;;;;;;55.50;29.80;;;4.30;99.90;;;;;;7645987;19;20890;-72
2022/11/29 05:53:06;;;;;;;54.47;28.10;;;4.30;99.90;;;;;;7638089;19;20029;-71
2022/11/29 05:55:47;;;;;;;49.30;27.77;;;4.50;99.90;;;;;;7643518;19;20093;-71
2022/11/29 05:58:27;;;;;;;45.63;24.63;;;4.50;99.90;;;;;;7618588;19;20010;-72
2022/11/29 06:01:13;;;;;;;54.63;29.40;;;4.60;99.90;;;;;;7618433;19;20017;-71
2022/11/29 06:03:58;;;;;;;45.83;24.80;;;4.60;99.90;;;;;;7625371;19;20018;-71
2022/11/29 06:07:00;;;;;;;51.92;27.08;;;4.70;99.90;;;;;;7635353;19;20029;-72
2022/11/29 06:09:50;;;;;;;51.47;27.70;;;4.80;99.90;;;;;;7627275;19;20041;-72
2022/11/29 06:12:23;;;;;;;45.15;23.65;;;4.80;99.90;;;;;;7634929;19;20014;-72
2022/11/29 06:15:12;;;;;;;43.92;23.45;;;4.80;99.90;;;;;;7626684;19;20089;-72
2022/11/29 06:17:54;;;;;;;53.70;26.98;;;4.80;99.90;;;;;;7586543;19;20514;-72
2022/11/29 06:20:26;;;;;;;39.70;23.05;;;4.90;99.90;;;;;;7571746;19;20723;-72
2022/11/29 06:23:24;;;;;;;45.85;24.95;;;4.90;99.90;;;;;;7598375;19;20014;-73
2022/11/29 06:26:18;;;;;;;40.53;22.90;;;4.90;99.90;;;;;;7563762;19;22127;-75
2022/11/29 06:29:00;;;;;;;39.90;22.20;;;4.90;99.90;;;;;;7557710;19;20501;-74
2022/11/29 06:31:45;;;;;;;42.45;23.75;;;5.00;99.90;;;;;;7591572;19;20483;-73
2022/11/29 06:34:45;;;;;;;45.33;24.77;;;5.00;99.90;;;;;;7610717;19;20014;-73
2022/11/29 06:37:27;;;;;;;45.60;24.42;;;4.90;99.90;;;;;;7607961;19;20048;-73
2022/11/29 06:40:00;;;;;;;45.63;25.35;;;5.00;99.90;;;;;;7592692;19;20010;-73
2022/11/29 06:42:32;;;;;;;47.70;24.10;;;5.00;99.90;;;;;;7620520;19;20015;-74
2022/11/29 06:45:06;;;;;;;48.85;26.25;;;5.00;99.90;;;;;;7601184;19;20010;-74
2022/11/29 06:47:45;;;;;;;;;;;5.00;99.90;;;;;;7599719;19;20010;-72
2022/11/29 06:50:31;;;;;;;42.78;24.05;;;5.00;99.90;;;;;;7617401;19;20348;-73
2022/11/29 06:53:20;;;;;;;44.40;23.92;;;5.00;99.90;;;;;;7588159;19;20504;-73
2022/11/29 06:56:06;;;;;;;37.17;22.73;;;5.10;99.90;;;;;;7584148;19;20018;-73
2022/11/29 06:59:00;;;;;;;45.65;24.88;;;5.10;99.90;;;;;;7597537;19;20011;-73
2022/11/29 07:01:47;;;;;;;42.50;24.75;;;5.10;99.90;;;;;;7590226;19;20887;-72
2022/11/29 07:04:38;;;;;;;41.80;25.00;;;5.20;99.90;;;;;;7582071;19;20520;-72
2022/11/29 07:07:21;;;;;;;37.58;22.20;;;5.20;99.90;;;;;;7570611;19;20015;-73
2022/11/29 07:09:58;;;;;;;50.25;27.75;;;5.20;99.90;;;;;;7569673;19;20015;-72
2022/11/29 07:12:31;;;;;;;45.85;25.20;;;5.20;99.90;;;;;;7588438;19;20015;-73
2022/11/29 07:15:03;;;;;;;44.15;25.20;;;5.20;99.90;;;;;;7568287;19;20014;-73
2022/11/29 07:17:54;;;;;;;36.60;23.17;;;5.20;99.90;;;;;;7579887;19;20018;-74
2022/11/29 07:20:56;;;;;;;38.55;24.25;;;5.30;99.90;;;;;;7543408;19;20014;-73
2022/11/29 07:23:35;;;;;;;53.88;27.10;;;5.30;99.90;;;;;;7565523;19;20339;-73
2022/11/29 07:26:35;;;;;;;35.95;22.00;;;5.20;99.90;;;;;;7556222;19;20125;-74
2022/11/29 07:29:13;;;;;;;54.33;27.38;;;5.30;99.90;;;;;;7597969;19;20453;-74
2022/11/29 07:31:51;;;;;;;48.42;24.77;;;5.30;99.90;;;;;;7576296;19;20573;-73
2022/11/29 07:34:36;;;;;;;48.58;27.25;;;5.30;99.90;;;;;;7532732;19;20018;-74
2022/11/29 07:37:29;;;;;;;42.25;23.23;;;5.30;99.90;;;;;;7504387;19;20022;-72
2022/11/29 07:40:18;;;;;;;55.33;28.40;;;5.30;99.90;;;;;;7558374;19;20960;-72
2022/11/29 07:43:34;;;;;;;41.30;22.45;;;5.20;99.90;;;;;;7581603;19;20060;-73
2022/11/29 07:46:06;;;;;;;44.22;24.10;;;5.30;99.90;;;;;;7590656;19;20011;-72
2022/11/29 07:48:38;;;;;;;41.22;24.65;;;5.30;99.90;;;;;;7597532;19;20014;-72
2022/11/29 07:51:11;;;;;;;47.58;26.23;;;5.30;99.90;;;;;;7598963;19;20494;-72
2022/11/29 07:53:43;;;;;;;43.83;25.20;;;5.30;99.90;;;;;;7594871;19;20531;-72
2022/11/29 07:56:16;;;;;;;43.60;24.50;;;5.30;99.90;;;;;;7588220;19;20601;-72
2022/11/29 07:58:48;;;;;;;46.83;24.98;;;5.40;99.90;;;;;;7591110;19;20018;-73
2022/11/29 08:01:20;;;;;;;40.08;24.05;;;5.40;99.90;;;;;;7591429;19;20363;-72
2022/11/29 08:03:52;;;;;;;48.40;25.92;;;5.40;99.90;;;;;;7567554;19;20094;-72
2022/11/29 08:06:25;;;;;;;43.17;25.15;;;5.40;99.90;;;;;;7581118;19;20782;-73
2022/11/29 08:08:58;;;;;;;43.75;24.90;;;5.40;99.90;;;;;;7594311;19;20880;-73
2022/11/29 15:25:53;;;;;;;62.47;29.33;;;5.30;99.90;;;;;;7630730;19;20716;-73
2022/11/29 15:28:27;;;;;;;71.72;33.97;;;5.30;99.90;;;;;;6588216;19;10000482;-72
2022/11/29 15:31:06;;;;;;;76.43;33.63;;;5.30;99.90;;;;;;7626608;19;20025;-72
2022/11/29 15:33:40;;;;;;;76.18;36.72;;;5.30;99.90;;;;;;7636276;19;20018;-72
2022/11/29 15:36:23;;;;;;;73.75;37.25;;;5.40;99.90;;;;;;7638656;19;20025;-72
2022/11/29 15:38:57;;;;;;;72.95;37.60;;;5.50;99.90;;;;;;7645416;19;20033;-72
2022/11/29 15:41:33;;;;;;;77.63;38.15;;;5.50;99.90;;;;;;7637587;19;20014;-73
2022/11/29 15:44:06;;;;;;;81.32;39.10;;;5.50;99.90;;;;;;7643096;19;20514;-72
2022/11/29 15:46:38;;;;;;;72.93;36.77;;;5.60;99.90;;;;;;7648271;19;20014;-73
2022/11/29 15:49:26;;;;;;;77.75;38.08;;;5.60;99.90;;;;;;7649284;19;20022;-72
2022/11/29 15:52:09;;;;;;;82.13;38.10;;;5.60;99.90;;;;;;7649803;19;20039;-72
2022/11/29 15:54:44;;;;;;;72.23;35.27;;;5.60;99.90;;;;;;7643850;19;20064;-72
2022/11/29 15:57:26;;;;;;;82.00;38.05;;;5.60;99.90;;;;;;7641388;19;20014;-72
2022/11/29 16:00:02;;;;;;;136.20;78.43;;;5.50;99.90;;;;;;7632874;19;20086;-72
2022/11/29 16:02:43;;;;;;;87.90;42.22;;;5.60;99.90;;;;;;7638644;19;20055;-72
2022/11/29 16:05:25;;;;;;;89.90;40.42;;;5.70;99.90;;;;;;7636674;19;20042;-72
2022/11/29 16:08:05;;;;;;;94.03;41.40;;;5.70;99.90;;;;;;7632749;19;20052;-72
2022/11/29 16:10:51;;;;;;;91.93;39.92;;;5.70;99.90;;;;;;7639011;19;20086;-72
2022/11/29 16:13:40;;;;;;;107.13;44.55;;;5.60;99.90;;;;;;7639985;19;20022;-73
2022/11/29 16:16:19;;;;;;;95.25;41.83;;;5.60;99.90;;;;;;7642729;19;20018;-72
2022/11/29 16:18:51;;;;;;;77.68;38.33;;;5.60;99.90;;;;;;7640707;19;20030;-72
2022/11/29 16:21:28;;;;;;;87.60;38.95;;;5.60;99.90;;;;;;7636279;19;20721;-72
2022/11/29 16:24:12;;;;;;;98.13;41.67;;;5.60;99.90;;;;;;7615110;19;20014;-73
2022/11/29 16:26:47;;;;;;;105.90;54.15;;;5.60;99.90;;;;;;7600096;19;20502;-71
2022/11/29 16:29:23;;;;;;;102.82;43.53;;;5.60;99.90;;;;;;7590295;19;20061;-73
2022/11/29 16:31:55;;;;;;;83.00;39.33;;;5.60;99.90;;;;;;7615659;19;20020;-72
2022/11/29 16:34:32;;;;;;;90.57;41.30;;;5.50;99.90;;;;;;7625419;19;20038;-72
2022/11/29 16:37:25;;;;;;;92.80;41.25;;;5.50;99.90;;;;;;7594913;19;20090;-73
2022/11/29 16:40:00;;;;;;;104.07;43.63;;;5.50;99.90;;;;;;7572913;19;20572;-70
2022/11/29 16:42:33;;;;;;;99.03;42.67;;;5.50;99.90;;;;;;7598056;19;20800;-71
2022/11/29 16:45:25;;;;;;;101.72;43.15;;;5.50;99.90;;;;;;7567310;19;20024;-72
2022/11/29 16:47:59;;;;;;;93.63;39.63;;;5.50;99.90;;;;;;7581255;19;20396;-71
2022/11/29 16:50:32;;;;;;;82.25;37.95;;;5.40;99.90;;;;;;7573920;19;22954;-70
2022/11/29 16:53:36;;;;;;;93.75;44.60;;;5.50;99.90;;;;;;7561909;19;20026;-72
2022/11/29 16:56:12;;;;;;;87.63;39.85;;;5.50;99.90;;;;;;7556492;19;20015;-72
2022/11/29 16:59:00;;;;;;;98.78;43.05;;;5.50;99.90;;;;;;7598180;19;20021;-72
2022/11/29 17:01:53;;;;;;;82.18;41.10;;;5.40;99.90;;;;;;7595211;19;20014;-72
2022/11/29 17:18:11;;;;;;;;;;;5.50;99.90;;;;;;7577191;19;25107;-71
2022/11/29 17:20:43;;;;;;;115.13;45.05;;;5.40;99.90;;;;;;7612052;19;20474;-75
2022/11/29 17:23:16;;;;;;;119.45;46.97;;;5.40;99.90;;;;;;7606261;19;20744;-73
2022/11/29 17:26:00;;;;;;;108.20;46.47;;;5.40;99.90;;;;;;7599330;19;20021;-73
2022/11/29 17:28:32;;;;;;;117.27;45.70;;;5.40;99.90;;;;;;7587328;19;20715;-73
2022/11/29 17:31:19;;;;;;;130.27;50.90;;;5.40;99.90;;;;;;7610677;19;20053;-73
2022/11/29 17:33:53;;;;;;;106.32;44.78;;;5.40;99.90;;;;;;7614684;19;20050;-74
2022/11/29 17:36:25;;;;;;;123.72;48.70;;;5.40;99.90;;;;;;7610266;19;20075;-73
2022/11/29 17:38:58;;;;;;;122.55;48.47;;;5.30;99.90;;;;;;7616961;19;20057;-74
2022/11/29 17:41:31;;;;;;;123.07;48.07;;;5.30;99.90;;;;;;7599634;19;20006;-74
2022/11/29 17:44:04;;;;;;;120.65;45.97;;;5.30;99.90;;;;;;7617114;19;20367;-73
2022/11/29 17:46:37;;;;;;;98.93;41.17;;;5.30;99.90;;;;;;7602295;19;20718;-73
2022/11/29 17:49:11;;;;;;;101.97;41.97;;;5.20;99.90;;;;;;7612076;19;20022;-73
2022/11/29 17:51:44;;;;;;;93.07;39.80;;;5.20;99.90;;;;;;7608694;19;20021;-72
2022/11/29 17:54:26;;;;;;;82.35;36.40;;;5.20;99.90;;;;;;7610321;19;20007;-72
2022/11/29 17:57:02;;;;;;;79.68;36.33;;;5.10;99.90;;;;;;7612887;19;20637;-73
2022/11/29 17:59:34;;;;;;;75.10;35.25;;;5.00;99.90;;;;;;7606924;19;20018;-72
2022/11/29 18:02:11;;;;;;;82.25;36.20;;;4.90;99.90;;;;;;7609503;19;20602;-73
2022/11/29 18:04:44;;;;;;;80.00;36.92;;;4.90;99.90;;;;;;7610000;19;20887;-73
2022/11/29 18:07:17;;;;;;;88.25;39.22;;;4.90;99.90;;;;;;7606928;19;20060;-73
2022/11/29 18:09:53;;;;;;;81.60;38.72;;;4.90;99.90;;;;;;7606658;19;20097;-73
2022/11/29 18:12:27;;;;;;;85.32;39.42;;;4.80;99.90;;;;;;7611133;19;20021;-73
2022/11/29 18:15:01;;;;;;;84.47;38.40;;;4.90;99.90;;;;;;7608381;19;20111;-73
2022/11/29 18:17:34;;;;;;;90.95;41.47;;;4.80;99.90;;;;;;7601151;19;20583;-72
2022/11/29 18:20:07;;;;;;;81.43;38.78;;;4.80;99.90;;;;;;7575608;19;22275;-73
2022/11/29 18:22:39;;;;;;;81.07;39.30;;;4.80;99.90;;;;;;7564563;19;20026;-72
2022/11/29 18:25:12;;;;;;;90.80;41.42;;;4.80;99.90;;;;;;7582194;19;20473;-73
2022/11/29 18:28:07;;;;;;;94.57;41.63;;;4.70;99.90;;;;;;7548751;19;20241;-72
2022/11/29 18:30:41;;;;;;;94.03;41.35;;;4.70;99.90;;;;;;7587796;19;20460;-72
2022/11/29 18:33:14;;;;;;;97.47;43.10;;;4.70;99.90;;;;;;7579247;19;20014;-72
2022/11/29 18:35:48;;;;;;;91.53;40.45;;;4.70;99.90;;;;;;7571228;19;20756;-73
2022/11/29 18:38:20;;;;;;;92.65;41.58;;;4.70;99.90;;;;;;7579611;19;20038;-72
2022/11/29 18:40:53;;;;;;;89.97;41.08;;;4.70;99.90;;;;;;7566996;19;20486;-72
2022/11/29 18:43:26;;;;;;;93.55;42.03;;;4.70;99.90;;;;;;7570947;19;20006;-73
2022/11/29 18:46:08;;;;;;;93.38;42.92;;;4.80;99.90;;;;;;7595004;19;20047;-73
2022/11/29 18:48:42;;;;;;;85.97;41.05;;;4.80;99.90;;;;;;7602772;19;20026;-72
2022/11/29 18:51:18;;;;;;;89.15;41.75;;;4.70;99.90;;;;;;7607553;19;20018;-73
2022/11/29 18:53:50;;;;;;;93.90;43.20;;;4.80;99.90;;;;;;7583614;19;20064;-73
2022/11/29 18:56:25;;;;;;;87.45;40.00;;;4.80;99.90;;;;;;7582136;19;20055;-73
2022/11/29 18:59:00;;;;;;;96.57;42.33;;;4.80;99.90;;;;;;7575370;19;20049;-72
2022/11/29 19:01:39;;;;;;;92.88;44.58;;;4.80;99.90;;;;;;7595764;19;20015;-71
2022/11/29 19:04:18;;;;;;;95.40;43.03;;;4.80;99.90;;;;;;7595730;19;20030;-71
2022/11/29 19:06:50;;;;;;;94.10;43.47;;;4.80;99.90;;;;;;7601077;19;20014;-72
2022/11/29 19:09:23;;;;;;;90.45;44.08;;;4.80;99.90;;;;;;7606760;19;20018;-73
2022/11/29 19:11:55;;;;;;;88.30;41.88;;;4.80;99.90;;;;;;7588154;19;20966;-72
2022/11/29 19:14:29;;;;;;;89.63;41.35;;;4.80;99.90;;;;;;7589784;19;20011;-74
2022/11/29 19:17:01;;;;;;;85.80;40.95;;;4.80;99.90;;;;;;7586998;19;20026;-73
2022/11/29 19:19:34;;;;;;;84.82;40.35;;;4.70;99.90;;;;;;7585804;19;20010;-71
2022/11/29 19:22:06;;;;;;;87.07;41.45;;;4.70;99.90;;;;;;7565268;19;21451;-72
2022/11/29 19:24:39;;;;;;;85.93;42.67;;;4.70;99.90;;;;;;7581031;19;20026;-72
2022/11/29 19:27:11;;;;;;;84.07;41.65;;;4.80;99.90;;;;;;7582646;19;20060;-71
2022/11/29 19:29:43;;;;;;;87.35;40.33;;;4.80;99.90;;;;;;7582243;19;20046;-70
2022/11/29 19:32:16;;;;;;;88.55;40.97;;;4.80;99.90;;;;;;7569463;19;20034;-71
2022/11/29 19:34:49;;;;;;;91.22;42.70;;;4.70;99.90;;;;;;7579757;19;20942;-72
2022/11/29 19:37:21;;;;;;;91.40;41.77;;;4.70;99.90;;;;;;7581033;19;20025;-71
2022/11/29 19:39:54;;;;;;;85.47;42.13;;;4.80;99.90;;;;;;7569427;19;20669;-72
2022/11/29 19:42:26;;;;;;;96.95;44.05;;;4.70;99.90;;;;;;7570408;19;20106;-72
2022/11/29 19:44:58;;;;;;;94.10;43.40;;;4.80;99.90;;;;;;7572488;19;20014;-71
2022/11/29 19:47:48;;;;;;;90.68;43.40;;;4.70;99.90;;;;;;7584827;19;20023;-71
2022/11/29 19:50:22;;;;;;;96.90;45.80;;;4.80;99.90;;;;;;7569962;19;20817;-71
2022/11/29 19:52:54;;;;;;;98.57;44.03;;;4.70;99.90;;;;;;7578762;19;20011;-71
2022/11/29 19:55:27;;;;;;;93.22;44.58;;;4.70;99.90;;;;;;7573183;19;20398;-71
2022/11/29 19:57:59;;;;;;;87.38;42.50;;;4.70;99.90;;;;;;7555936;19;20125;-71
2022/11/29 20:00:32;;;;;;;87.43;44.08;;;4.70;99.90;;;;;;7588539;19;20018;-71
2022/11/29 20:03:05;;;;;;;97.72;43.45;;;4.70;99.90;;;;;;7568330;19;20029;-71
2022/11/29 20:05:37;;;;;;;103.45;45.30;;;4.70;99.90;;;;;;7584981;19;20014;-71
2022/11/29 20:08:10;;;;;;;95.22;43.53;;;4.70;99.90;;;;;;7598715;19;20006;-71
2022/11/29 20:10:42;;;;;;;95.05;46.75;;;4.70;99.90;;;;;;7601177;19;20901;-72
2022/11/29 20:13:15;;;;;;;91.13;43.50;;;4.70;99.90;;;;;;7602540;19;20022;-72
2022/11/29 20:42:49;;;;;;;89.72;40.42;;;4.60;99.90;;;;;;7580554;19;20010;-72
2022/11/29 20:45:22;;;;;;;81.35;39.42;;;4.60;99.90;;;;;;7573290;19;20022;-71
2022/11/29 20:48:15;;;;;;;80.15;37.60;;;4.60;99.90;;;;;;7597389;19;20051;-72
2022/11/29 20:50:59;;;;;;;86.53;39.55;;;4.60;99.90;;;;;;7582462;19;20961;-71
2022/11/29 20:53:35;;;;;;;77.45;36.13;;;4.50;99.90;;;;;;7604424;19;20018;-71
2022/11/29 20:56:09;;;;;;;75.25;36.72;;;4.50;99.90;;;;;;7610788;19;20022;-72
2022/11/29 20:58:41;;;;;;;77.97;37.03;;;4.50;99.90;;;;;;7610005;19;20022;-71
2022/11/29 21:01:13;;;;;;;78.18;38.08;;;4.50;99.90;;;;;;7608889;19;20092;-71
2022/11/29 21:03:46;;;;;;;71.88;35.85;;;4.50;99.90;;;;;;7579612;19;20025;-71
2022/11/29 21:06:18;;;;;;;77.18;37.00;;;4.50;99.90;;;;;;7580105;19;20085;-71
2022/11/29 21:08:50;;;;;;;80.88;38.10;;;4.50;99.90;;;;;;7574724;19;21303;-72
2022/11/29 21:11:24;;;;;;;84.65;38.60;;;4.50;99.90;;;;;;7600020;19;20018;-71
2022/11/29 21:13:56;;;;;;;86.97;39.30;;;4.40;99.90;;;;;;7600214;19;20018;-72
2022/11/29 21:16:30;;;;;;;81.32;37.83;;;4.40;99.90;;;;;;7609516;19;20029;-72
2022/11/29 21:19:03;;;;;;;80.32;39.03;;;4.40;99.90;;;;;;7612232;19;20107;-72
2022/11/29 21:21:53;;;;;;;71.73;36.13;;;4.50;99.90;;;;;;7617489;19;20018;-71
2022/11/29 21:24:28;;;;;;;80.63;38.53;;;4.40;99.90;;;;;;7616072;19;20018;-71
2022/11/29 21:27:02;;;;;;;84.03;38.42;;;4.40;99.90;;;;;;7602597;19;20019;-71
2022/11/29 21:29:34;;;;;;;82.95;39.33;;;4.40;99.90;;;;;;7610544;19;20025;-71
2022/11/29 21:32:07;;;;;;;85.80;38.13;;;4.40;99.90;;;;;;7614059;19;20010;-71
2022/11/29 21:34:40;;;;;;;;;;;4.30;99.90;;;;;;7611530;19;20007;-71
2022/11/29 21:37:13;;;;;;;78.57;37.00;;;4.30;99.90;;;;;;7617141;19;19921;-72
2022/11/29 21:39:47;;;;;;;94.53;38.55;;;4.30;99.90;;;;;;7618459;19;20026;-71
2022/11/29 21:42:19;;;;;;;89.55;40.60;;;4.30;99.90;;;;;;7618992;19;20663;-72
2022/11/29 21:44:51;;;;;;;94.28;41.80;;;4.20;99.90;;;;;;7607226;19;20014;-73
2022/11/29 21:47:24;;;;;;;92.53;40.80;;;4.20;99.90;;;;;;7601053;19;20011;-71
